createdAt,value
2019-03-04T00:03:02.376Z,29.00
2019-03-04T00:08:04.042Z,33.67
2019-03-04T00:13:05.902Z,31.73
2019-03-04T00:18:07.567Z,40.07
2019-03-04T00:23:09.243Z,36.00
2019-03-04T00:28:10.911Z,27.83
2019-03-04T00:33:12.775Z,53.70
2019-03-04T00:38:14.427Z,54.73
2019-03-04T00:43:16.076Z,58.07
2019-03-04T00:48:18.032Z,39.10
2019-03-04T00:53:19.657Z,49.93
2019-03-04T00:58:21.300Z,44.43
2019-03-04T01:03:23.057Z,43.87
2019-03-04T01:08:25.237Z,49.23
2019-03-04T01:13:26.994Z,41.53
2019-03-04T01:18:28.691Z,41.33
2019-03-04T01:23:30.395Z,27.23
2019-03-04T01:28:32.097Z,18.43
2019-03-04T01:33:33.795Z,31.10
2019-03-04T01:38:35.412Z,24.17
2019-03-04T01:43:37.099Z,21.70
2019-03-04T01:48:38.895Z,27.73
2019-03-04T01:53:40.700Z,18.83
2019-03-04T01:58:42.440Z,19.47
2019-03-04T02:03:44.826Z,23.33
2019-03-04T02:08:46.824Z,27.30
2019-03-04T02:13:48.627Z,30.00
2019-03-04T02:18:50.327Z,16.33
2019-03-04T02:23:52.066Z,15.57
2019-03-04T02:28:53.732Z,13.70
2019-03-04T02:33:55.438Z,19.47
2019-03-04T02:38:57.126Z,12.90
2019-03-04T02:43:58.834Z,16.83
2019-03-04T02:49:00.628Z,9.00
2019-03-04T02:54:02.421Z,18.50
2019-03-04T02:59:04.213Z,15.03
2019-03-04T03:04:06.004Z,14.23
2019-03-04T03:09:10.865Z,20.40
2019-03-04T03:14:12.642Z,21.30
2019-03-04T03:19:14.273Z,20.50
2019-03-04T03:24:15.895Z,23.37
2019-03-04T03:29:17.481Z,30.17
2019-03-04T03:34:19.654Z,10.10
2019-03-04T03:39:21.819Z,25.23
2019-03-04T03:44:23.486Z,13.17
2019-03-04T03:49:25.278Z,13.43
2019-03-04T03:54:27.085Z,18.60
2019-03-04T03:59:28.824Z,12.07
2019-03-04T04:04:30.546Z,21.40
2019-03-04T04:09:32.685Z,9.10
2019-03-04T04:14:34.419Z,12.10
2019-03-04T04:19:36.282Z,16.17
2019-03-04T04:24:37.907Z,15.63
2019-03-04T04:29:39.571Z,13.47
2019-03-04T04:34:41.203Z,18.07
2019-03-04T04:39:42.912Z,23.93
2019-03-04T04:44:44.613Z,17.60
2019-03-04T04:49:46.311Z,14.40
2019-03-04T04:54:48.117Z,18.93
2019-03-04T04:59:49.856Z,18.03
2019-03-04T05:04:52.038Z,16.13
2019-03-04T05:09:54.468Z,11.13
2019-03-04T05:14:56.431Z,22.80
2019-03-04T05:19:58.267Z,23.73
2019-03-04T05:25:00.077Z,28.13
2019-03-04T05:30:02.177Z,12.73
2019-03-04T05:35:04.627Z,13.87
2019-03-04T05:40:12.036Z,28.10
2019-03-04T05:45:26.984Z,17.60
2019-03-04T05:50:28.833Z,32.70
2019-03-04T05:55:31.431Z,20.80
2019-03-04T06:00:35.771Z,15.13
2019-03-04T06:05:37.553Z,18.40
2019-03-04T06:10:39.700Z,27.83
2019-03-04T06:15:41.963Z,29.73
2019-03-04T06:20:43.676Z,12.63
2019-03-04T06:25:45.726Z,14.87
2019-03-04T06:30:49.307Z,13.07
2019-03-04T06:35:51.239Z,23.27
2019-03-04T06:40:53.321Z,10.23
2019-03-04T06:45:55.002Z,15.10
2019-03-04T06:50:56.806Z,15.57
2019-03-04T06:56:11.943Z,33.80
2019-03-04T07:01:16.983Z,9.93
2019-03-04T07:06:19.016Z,10.47
2019-03-04T07:11:22.070Z,12.60
2019-03-04T07:16:23.921Z,8.70
2019-03-04T07:21:25.565Z,9.47
2019-03-04T07:26:27.263Z,9.27
2019-03-04T07:31:29.298Z,15.93
2019-03-04T07:36:30.977Z,23.63
2019-03-04T07:41:33.483Z,18.77
2019-03-04T07:46:35.213Z,9.33
2019-03-04T07:51:37.092Z,6.47
2019-03-04T07:56:38.804Z,2.07
2019-03-04T08:01:40.988Z,3.57
2019-03-04T08:06:42.720Z,7.47
2019-03-04T08:11:59.225Z,8.67
2019-03-04T08:17:01.035Z,2.07
2019-03-04T08:22:03.071Z,3.33
2019-03-04T08:27:04.837Z,6.57
2019-03-04T08:32:06.514Z,13.07
2019-03-04T08:37:08.211Z,2.80
2019-03-04T08:42:10.123Z,7.23
2019-03-04T08:47:11.843Z,8.00
2019-03-04T08:52:13.564Z,2.00
2019-03-04T08:57:15.388Z,6.53
2019-03-04T09:02:17.176Z,9.37
2019-03-04T09:07:19.380Z,5.13
2019-03-04T09:12:22.384Z,5.30
2019-03-04T09:17:24.385Z,1.60
2019-03-04T09:22:26.091Z,7.77
2019-03-04T09:27:27.714Z,5.23
2019-03-04T09:32:29.339Z,3.70
2019-03-04T09:37:30.964Z,5.87
2019-03-04T09:42:32.705Z,6.40
2019-03-04T09:47:34.423Z,10.80
2019-03-04T09:52:36.166Z,21.37
2019-03-04T09:57:37.945Z,15.73
2019-03-04T10:02:40.028Z,27.20
2019-03-04T10:07:57.393Z,22.17
2019-03-04T10:13:17.888Z,17.10
2019-03-04T10:18:32.381Z,26.70
2019-03-04T10:23:59.096Z,23.93
2019-03-04T10:29:16.681Z,19.43
2019-03-04T10:34:43.307Z,23.67
2019-03-04T10:39:51.591Z,22.10
2019-03-04T10:45:05.832Z,28.33
2019-03-04T10:50:09.337Z,31.10
2019-03-04T10:55:12.266Z,22.53
2019-03-04T11:00:16.560Z,25.90
2019-03-04T11:05:18.472Z,28.30
2019-03-04T11:10:20.269Z,29.60
2019-03-04T11:15:24.091Z,17.97
2019-03-04T11:20:25.764Z,21.93
2019-03-04T11:25:28.241Z,16.43
2019-03-04T11:30:33.391Z,22.93
2019-03-04T11:35:35.545Z,19.47
2019-03-04T11:40:39.571Z,24.70
2019-03-04T11:45:43.011Z,18.23
2019-03-04T11:50:45.211Z,16.50
2019-03-04T11:55:47.018Z,20.83
2019-03-04T12:01:06.816Z,18.37
2019-03-04T12:06:09.346Z,27.97
2019-03-04T12:11:11.305Z,15.47
2019-03-04T12:16:12.954Z,29.60
2019-03-04T12:21:14.653Z,29.90
2019-03-04T12:26:18.507Z,32.67
2019-03-04T12:31:19.844Z,27.03
2019-03-04T12:36:22.729Z,28.23
2019-03-04T12:41:24.471Z,33.30
2019-03-04T12:46:26.175Z,27.27
2019-03-04T12:51:28.095Z,32.87
2019-03-04T12:56:29.725Z,38.67
2019-03-04T13:01:31.480Z,20.23
2019-03-04T13:06:35.696Z,26.80
2019-03-04T13:11:37.591Z,29.63
2019-03-04T13:16:39.596Z,47.83
2019-03-04T13:21:42.028Z,28.10
2019-03-04T13:26:43.671Z,43.33
2019-03-04T13:31:45.373Z,56.93
2019-03-04T13:36:47.499Z,40.30
2019-03-04T13:41:49.227Z,37.40
2019-03-04T13:46:51.321Z,36.23
2019-03-04T13:51:54.614Z,43.60
2019-03-04T13:56:56.400Z,53.67
2019-03-04T14:01:58.119Z,37.40
2019-03-04T14:07:00.292Z,26.37
2019-03-04T14:12:02.405Z,37.70
2019-03-04T14:17:04.183Z,40.33
2019-03-04T14:22:06.192Z,24.93
2019-03-04T14:27:07.792Z,38.97
2019-03-04T14:32:09.459Z,45.23
2019-03-04T14:37:11.402Z,47.70
2019-03-04T14:42:13.371Z,40.43
2019-03-04T14:47:15.108Z,45.33
2019-03-04T14:52:16.803Z,38.47
2019-03-04T14:57:18.811Z,32.10
2019-03-04T15:02:20.508Z,40.10
2019-03-04T15:07:22.544Z,43.10
2019-03-04T15:12:24.162Z,40.43
2019-03-04T15:17:27.513Z,42.17
2019-03-04T15:22:34.821Z,25.57
2019-03-04T15:27:33.076Z,33.33
2019-03-04T15:32:34.765Z,33.07
2019-03-04T15:37:36.914Z,25.97
2019-03-04T15:42:38.526Z,25.67
2019-03-04T15:47:41.607Z,52.63
2019-03-04T15:52:45.293Z,31.97
2019-03-04T15:57:49.375Z,41.47
2019-03-04T16:02:55.805Z,34.03
2019-03-04T16:08:07.062Z,41.97
2019-03-04T16:13:03.473Z,39.70
2019-03-04T16:18:06.575Z,30.80
2019-03-04T16:23:08.328Z,39.57
2019-03-04T16:28:16.068Z,38.40
2019-03-04T16:33:18.030Z,52.60
2019-03-04T16:38:20.369Z,38.77
2019-03-04T16:43:22.322Z,23.30
2019-03-04T16:48:24.081Z,20.27
2019-03-04T16:53:31.750Z,27.10
2019-03-04T16:58:33.584Z,29.77
2019-03-04T17:03:35.967Z,28.47
2019-03-04T17:08:38.289Z,25.40
2019-03-04T17:13:40.249Z,39.57
2019-03-04T17:18:42.715Z,33.07
2019-03-04T17:23:44.800Z,54.83
2019-03-04T17:28:46.675Z,50.17
2019-03-04T17:33:52.749Z,69.17
2019-03-04T17:38:55.222Z,52.93
2019-03-04T17:43:57.039Z,46.70
2019-03-04T17:48:59.303Z,51.83
2019-03-04T17:54:01.235Z,50.47
2019-03-04T17:59:03.255Z,50.03
2019-03-04T18:04:05.422Z,70.43
2019-03-04T18:09:08.169Z,80.07
2019-03-04T18:14:10.024Z,87.40
2019-03-04T18:19:18.522Z,49.00
2019-03-04T18:24:20.740Z,51.57
2019-03-04T18:29:35.714Z,63.33
2019-03-04T18:34:47.445Z,52.47
2019-03-04T18:40:15.711Z,54.50
2019-03-04T18:45:25.230Z,45.63
2019-03-04T18:50:29.765Z,59.07
2019-03-04T18:55:32.165Z,51.23
2019-03-04T19:00:34.237Z,51.03
2019-03-04T19:05:39.319Z,57.30
2019-03-04T19:10:41.571Z,40.37
2019-03-04T19:15:43.588Z,47.60
2019-03-04T19:20:45.403Z,55.93
2019-03-04T19:25:47.295Z,70.67
2019-03-04T19:30:49.249Z,66.87
2019-03-04T19:35:53.547Z,94.30
2019-03-04T19:40:57.020Z,52.03
2019-03-04T19:45:58.979Z,71.30
2019-03-04T19:51:01.443Z,117.63
2019-03-04T19:56:03.912Z,107.80
2019-03-04T20:01:06.324Z,122.93
2019-03-04T20:06:10.774Z,144.00
2019-03-04T20:11:12.694Z,95.27
2019-03-04T20:16:16.699Z,93.70
2019-03-04T20:21:18.803Z,118.83
2019-03-04T20:26:21.380Z,74.20
2019-03-04T20:31:23.089Z,112.03
2019-03-04T20:36:25.902Z,116.97
2019-03-04T20:41:28.624Z,100.77
2019-03-04T20:46:30.377Z,122.70
2019-03-04T20:51:33.244Z,91.00
2019-03-04T20:56:36.593Z,106.50
2019-03-04T21:01:45.242Z,76.53
2019-03-04T21:06:51.297Z,90.00
2019-03-04T21:11:53.711Z,90.70
2019-03-04T21:16:55.479Z,105.77
2019-03-04T21:21:57.718Z,110.20
2019-03-04T21:26:59.807Z,108.33
2019-03-04T21:32:17.366Z,98.03
2019-03-04T21:37:26.080Z,93.87
2019-03-04T21:42:31.610Z,87.60
2019-03-04T21:47:49.453Z,76.33
2019-03-04T21:53:03.689Z,72.20
2019-03-04T21:58:05.892Z,91.80
2019-03-04T22:03:14.301Z,88.10
2019-03-04T22:08:16.157Z,74.13
2019-03-04T22:13:18.108Z,62.37
2019-03-04T22:18:19.941Z,59.53
2019-03-04T22:23:22.489Z,67.17
2019-03-04T22:28:24.179Z,71.53
2019-03-04T22:33:26.483Z,64.37
2019-03-04T22:38:28.289Z,53.93
2019-03-04T22:43:29.976Z,73.40
2019-03-04T22:48:31.771Z,82.00
2019-03-04T22:53:33.577Z,65.53
2019-03-04T22:58:35.384Z,63.50
2019-03-04T23:03:37.525Z,63.63
2019-03-04T23:08:39.203Z,71.33
2019-03-04T23:13:53.870Z,57.50
2019-03-04T23:18:55.595Z,68.63
2019-03-04T23:23:57.500Z,45.90
2019-03-04T23:28:59.201Z,54.20
2019-03-04T23:34:00.849Z,70.97
2019-03-04T23:39:04.665Z,78.47
2019-03-04T23:44:06.341Z,45.80
2019-03-04T23:49:08.141Z,35.07
2019-03-04T23:54:10.157Z,44.77
2019-03-04T23:59:11.856Z,47.67
